Time;durP1;ratioP1;P1;durP2;ratioP2;P2;SDS_P1;SDS_P2;PMS_P1;PMS_P2;Temp;Humidity;BMP_temperature;BMP_pressure;BME280_temperature;BME280_humidity;BME280_pressure;Samples;Min_cycle;Max_cycle;Signal;HPM_P1;HPM_P2
2020/12/19 00:02:25;;;;;;;54.88;26.65;;;;;;;3.58;79.21;98291.66;1760851;81;21316;-80
2020/12/19 00:04:52;;;;;;;64.25;32.03;;;;;;;3.55;79.18;98286.09;1762174;81;22571;-84
2020/12/19 00:07:20;;;;;;;55.67;26.00;;;;;;;3.55;79.30;98287.86;1761866;81;21309;-78
2020/12/19 00:09:47;;;;;;;52.50;24.20;;;;;;;3.63;79.43;98290.20;1761552;81;21143;-82
2020/12/19 00:12:21;;;;;;;62.75;30.45;;;;;;;3.63;79.31;98292.38;1762089;81;21112;-84
2020/12/19 00:14:50;;;;;;;35.68;15.20;;;;;;;3.59;79.57;98299.88;1761699;81;21289;-81
2020/12/19 00:17:17;;;;;;;62.55;29.55;;;;;;;3.63;79.41;98295.41;1759776;81;21191;-80
2020/12/19 00:19:45;;;;;;;56.48;28.62;;;;;;;3.57;79.66;98304.31;1759362;81;21167;-80
2020/12/19 00:22:12;;;;;;;55.67;28.02;;;;;;;3.55;79.30;98304.34;1762061;81;21304;-80
2020/12/19 00:24:40;;;;;;;44.33;19.30;;;;;;;3.52;79.30;98308.81;1765448;81;21170;-81
2020/12/19 00:27:11;;;;;;;60.88;27.70;;;;;;;3.51;79.55;98303.19;1760976;81;21289;-85
2020/12/19 00:29:38;;;;;;;66.33;29.57;;;;;;;3.48;79.61;98300.70;1760543;81;21267;-83
2020/12/19 00:32:08;;;;;;;63.35;31.85;;;;;;;3.48;79.55;98300.70;1760475;81;21163;-85
2020/12/19 00:34:37;;;;;;;64.50;30.25;;;;;;;3.47;79.74;98304.20;1758916;81;21286;-80
2020/12/19 00:37:05;;;;;;;66.67;31.35;;;;;;;3.47;79.58;98308.95;1759337;81;21284;-81
2020/12/19 00:39:32;;;;;;;61.42;27.93;;;;;;;3.46;80.30;98307.72;1757059;81;21265;-78
2020/12/19 00:42:00;;;;;;;70.92;31.95;;;;;;;3.52;79.83;98303.59;1761338;81;21741;-80
2020/12/19 00:44:27;;;;;;;66.80;30.92;;;;;;;3.50;79.91;98308.00;1760521;81;21250;-83
2020/12/19 00:46:54;;;;;;;52.20;23.47;;;;;;;3.54;79.63;98303.94;1760217;81;21148;-84
2020/12/19 00:49:22;;;;;;;63.60;31.52;;;;;;;3.54;79.45;98304.41;1764652;81;21146;-82
2020/12/19 00:51:50;;;;;;;61.42;28.23;;;;;;;3.46;79.75;98305.11;1760107;81;21266;-81
2020/12/19 00:54:17;;;;;;;65.37;30.37;;;;;;;3.37;79.62;98302.33;1760333;81;21156;-82
2020/12/19 00:56:44;;;;;;;51.28;23.27;;;;;;;3.28;79.90;98300.42;1762997;81;21301;-81
2020/12/19 00:59:12;;;;;;;54.60;28.00;;;;;;;3.28;80.05;98299.12;1762345;81;21253;-83
2020/12/19 01:01:39;;;;;;;53.90;25.82;;;;;;;3.23;80.09;98301.46;1760365;81;21156;-83
2020/12/19 01:04:06;;;;;;;49.83;26.20;;;;;;;3.23;80.08;98304.06;1760163;81;21233;-83
2020/12/19 01:06:33;;;;;;;48.65;20.05;;;;;;;3.22;80.03;98304.53;1762645;81;21250;-81
2020/12/19 01:09:22;;;;;;;61.68;30.70;;;;;;;3.30;80.09;98308.18;1827076;77;24498;-80
2020/12/19 01:11:50;;;;;;;63.23;28.40;;;;;;;3.19;80.26;98299.88;1831049;78;21273;-80
2020/12/19 01:14:17;;;;;;;45.20;19.62;;;;;;;3.17;80.62;98292.55;1764191;81;21317;-82
2020/12/19 01:16:44;;;;;;;66.57;31.77;;;;;;;3.18;80.40;98297.70;1763867;81;21286;-79
2020/12/19 01:19:11;;;;;;;65.17;30.15;;;;;;;3.16;80.50;98295.58;1773207;81;21159;-81
2020/12/19 01:21:39;;;;;;;59.25;28.00;;;;;;;3.17;80.47;98296.45;1773216;81;21143;-79
2020/12/19 01:24:06;;;;;;;46.98;23.25;;;;;;;3.16;80.49;98301.26;1773196;81;21154;-80
2020/12/19 01:26:33;;;;;;;62.00;29.20;;;;;;;3.14;80.70;98297.41;1773123;81;21116;-79
2020/12/19 01:29:01;;;;;;;55.80;26.37;;;;;;;3.11;80.55;98295.72;1768982;81;21454;-77
2020/12/19 01:31:29;;;;;;;67.05;33.08;;;;;;;3.13;80.65;98291.33;1742618;82;21127;-80
2020/12/19 01:33:56;;;;;;;61.40;31.68;;;;;;;3.10;80.76;98291.88;1742818;82;21305;-78
2020/12/19 01:36:24;;;;;;;39.90;18.50;;;;;;;3.17;80.84;98290.77;1742732;82;21249;-78
2020/12/19 01:38:52;;;;;;;61.85;28.07;;;;;;;3.22;80.71;98286.72;1743219;82;21147;-80
2020/12/19 01:41:22;;;;;;;68.78;33.40;;;;;;;3.24;80.76;98288.84;1743983;82;21285;-82
2020/12/19 01:44:36;;;;;;;60.23;28.30;;;;;;;3.30;80.74;98292.54;1743856;82;21261;-81
2020/12/19 01:47:07;;;;;;;67.22;32.78;;;;;;;3.31;81.01;98287.73;1743751;82;21135;-80
2020/12/19 01:49:35;;;;;;;59.80;29.18;;;;;;;3.37;80.72;98289.30;1743566;82;21253;-81
2020/12/19 01:52:05;;;;;;;64.27;33.02;;;;;;;3.44;80.72;98289.06;1743639;82;21131;-78
2020/12/19 01:54:33;;;;;;;63.63;30.30;;;;;;;3.42;80.50;98284.34;1743550;82;21174;-82
2020/12/19 01:57:03;;;;;;;59.10;23.02;;;;;;;3.41;80.31;98287.84;1743564;82;21290;-79
2020/12/19 01:59:32;;;;;;;69.60;31.35;;;;;;;3.36;80.37;98292.37;1743621;82;21170;-80
2020/12/19 02:02:07;;;;;;;68.65;30.62;;;;;;;3.26;80.61;98292.25;1743563;82;21272;-83
2020/12/19 02:04:35;;;;;;;74.82;33.53;;;;;;;3.31;80.71;98286.89;1743847;82;21162;-80
2020/12/19 02:07:05;;;;;;;54.15;26.12;;;;;;;3.34;80.96;98286.34;1743823;82;21127;-79
2020/12/19 02:09:39;;;;;;;74.27;33.05;;;;;;;3.43;80.59;98284.75;1734885;82;21181;-81
2020/12/19 02:12:08;;;;;;;74.87;31.50;;;;;;;3.44;80.60;98276.46;1734877;82;21090;-84
2020/12/19 02:14:37;;;;;;;59.10;27.60;;;;;;;3.51;80.80;98279.30;1734818;83;21150;-84
2020/12/19 02:17:12;;;;;;;55.88;24.60;;;;;;;3.60;80.66;98283.34;1734286;82;21299;-83
2020/12/19 02:19:42;;;;;;;72.40;33.00;;;;;;;3.55;80.20;98273.06;1733772;82;21717;-79
2020/12/19 02:22:10;;;;;;;58.68;25.35;;;;;;;3.48;80.26;98274.64;1733918;82;21294;-79
2020/12/19 02:24:37;;;;;;;65.05;29.67;;;;;;;3.46;80.33;98275.12;1733630;82;21142;-79
2020/12/19 02:27:05;;;;;;;48.78;21.25;;;;;;;3.47;80.39;98271.63;1757779;82;21257;-82
2020/12/19 02:29:33;;;;;;;69.90;29.77;;;;;;;3.49;80.34;98278.92;1727730;83;21135;-79
2020/12/19 02:32:02;;;;;;;46.02;19.02;;;;;;;3.49;80.39;98281.09;1729109;83;21151;-77
2020/12/19 02:34:30;;;;;;;52.25;21.48;;;;;;;3.43;80.22;98271.72;1757178;82;21537;-77
2020/12/19 02:36:58;;;;;;;61.60;28.12;;;;;;;3.35;80.26;98276.33;1759449;82;21103;-83
2020/12/19 02:39:25;;;;;;;66.80;30.65;;;;;;;3.27;80.45;98270.51;1729237;83;21156;-78
2020/12/19 02:41:53;;;;;;;66.62;31.75;;;;;;;3.24;80.53;98279.28;1757195;81;21155;-82
2020/12/19 02:44:22;;;;;;;64.05;30.50;;;;;;;3.26;80.61;98277.92;1736985;83;21171;-80
2020/12/19 02:46:49;;;;;;;62.60;29.65;;;;;;;3.30;80.67;98274.77;1737047;83;21119;-79
2020/12/19 02:49:18;;;;;;;64.65;29.60;;;;;;;3.32;80.62;98275.58;1727599;83;21636;-80
2020/12/19 02:51:46;;;;;;;48.13;19.05;;;;;;;3.35;80.50;98270.24;1729147;83;21116;-81
2020/12/19 02:54:13;;;;;;;63.83;27.58;;;;;;;3.38;80.73;98276.23;1757342;82;21151;-79
2020/12/19 02:56:41;;;;;;;67.03;30.15;;;;;;;3.35;80.46;98276.76;1759478;82;21155;-82
2020/12/19 02:59:08;;;;;;;61.75;27.75;;;;;;;3.33;80.62;98270.30;1729384;83;21200;-81
2020/12/19 03:01:36;;;;;;;51.33;20.57;;;;;;;3.34;80.70;98273.31;1757143;81;21138;-82
2020/12/19 03:04:03;;;;;;;49.27;21.50;;;;;;;3.36;80.47;98270.22;1759047;81;21782;-81
2020/12/19 03:06:33;;;;;;;51.33;24.10;;;;;;;3.30;80.59;98274.30;1729244;83;21184;-84
2020/12/19 03:09:04;;;;;;;57.48;26.23;;;;;;;3.29;80.58;98266.11;1756627;82;21296;-84
2020/12/19 03:11:32;;;;;;;67.30;31.27;;;;;;;3.29;80.76;98264.80;1743269;82;21205;-78
2020/12/19 03:14:00;;;;;;;69.90;33.02;;;;;;;3.30;81.18;98259.97;1743388;82;21179;-82
2020/12/19 03:16:27;;;;;;;70.45;30.68;;;;;;;3.37;81.57;98261.93;1742763;82;21147;-80
2020/12/19 03:18:54;;;;;;;69.70;33.55;;;;;;;3.39;81.44;98253.61;1742839;82;21123;-78
2020/12/19 03:21:22;;;;;;;72.82;32.88;;;;;;;3.37;80.93;98256.28;1742791;82;21273;-81
2020/12/19 03:23:49;;;;;;;73.87;34.83;;;;;;;3.39;80.85;98251.84;1742638;82;21155;-80
2020/12/19 03:26:18;;;;;;;69.03;33.45;;;;;;;3.39;81.18;98247.10;1742720;82;21288;-82
2020/12/19 03:28:45;;;;;;;75.30;34.33;;;;;;;3.43;81.21;98247.41;1742394;82;21162;-80
2020/12/19 03:31:13;;;;;;;79.75;35.10;;;;;;;3.46;81.07;98243.84;1742511;82;21292;-81
2020/12/19 03:33:40;;;;;;;69.70;32.10;;;;;;;3.51;80.92;98245.41;1742862;82;21277;-81
2020/12/19 03:36:07;;;;;;;70.47;33.35;;;;;;;3.54;80.79;98244.44;1742835;82;21273;-84
2020/12/19 03:38:35;;;;;;;70.25;33.55;;;;;;;3.55;80.83;98244.38;1742837;82;21080;-82
2020/12/19 03:41:02;;;;;;;70.72;34.25;;;;;;;3.59;80.75;98243.81;1726202;83;21329;-80
2020/12/19 03:43:30;;;;;;;64.15;30.77;;;;;;;3.59;80.69;98243.81;1790118;80;21249;-84
2020/12/19 03:45:57;;;;;;;73.47;35.40;;;;;;;3.58;80.36;98237.77;1790237;80;21139;-83
2020/12/19 03:48:24;;;;;;;70.97;29.05;;;;;;;3.56;80.65;98235.66;1790688;80;21273;-84
2020/12/19 03:50:52;;;;;;;47.58;21.05;;;;;;;3.54;80.18;98234.02;1790804;80;21147;-82
2020/12/19 03:53:20;;;;;;;35.98;15.32;;;;;;;3.50;80.71;98233.70;1790831;80;21138;-83
2020/12/19 03:55:47;;;;;;;71.72;30.48;;;;;;;3.52;80.33;98234.51;1790810;80;21112;-79
2020/12/19 03:58:14;;;;;;;72.20;32.67;;;;;;;3.40;80.56;98231.40;1790702;80;21269;-84
2020/12/19 04:00:42;;;;;;;65.57;31.42;;;;;;;3.41;80.57;98234.41;1790575;80;21163;-83
2020/12/19 04:03:09;;;;;;;66.45;30.48;;;;;;;3.46;80.70;98226.91;1790456;80;21241;-84
2020/12/19 04:05:40;;;;;;;56.48;26.62;;;;;;;3.54;80.84;98234.02;1790534;80;21281;-83
2020/12/19 04:08:10;;;;;;;65.30;30.80;;;;;;;3.61;80.64;98234.20;1791980;80;21123;-83
2020/12/19 04:10:38;;;;;;;67.72;30.82;;;;;;;3.61;80.42;98229.45;1773875;80;21210;-84
2020/12/19 04:13:06;;;;;;;59.08;27.62;;;;;;;3.64;80.68;98232.80;1799327;80;21253;-85
2020/12/19 04:15:33;;;;;;;66.53;31.37;;;;;;;3.70;80.50;98235.66;1799471;80;21127;-82
2020/12/19 04:18:00;;;;;;;67.35;30.15;;;;;;;3.73;80.48;98227.70;1799504;80;21249;-83
2020/12/19 04:20:28;;;;;;;60.40;25.85;;;;;;;3.71;80.46;98221.72;1799595;79;21268;-84
2020/12/19 04:22:55;;;;;;;73.87;32.08;;;;;;;3.80;80.60;98229.22;1799435;80;21204;-85
2020/12/19 04:25:23;;;;;;;58.63;29.23;;;;;;;3.78;80.50;98226.24;1799453;79;21304;-84
2020/12/19 04:27:50;;;;;;;62.95;30.60;;;;;;;3.82;80.41;98221.33;1799463;79;21127;-83
2020/12/19 04:30:17;;;;;;;59.18;28.52;;;;;;;3.77;80.33;98226.70;1799201;79;21163;-81
2020/12/19 04:32:44;;;;;;;54.15;26.70;;;;;;;3.77;80.27;98225.84;1799163;79;21266;-79
2020/12/19 04:35:12;;;;;;;69.47;33.05;;;;;;;3.63;80.28;98226.31;1799183;80;21147;-81
2020/12/19 04:37:39;;;;;;;66.87;30.05;;;;;;;3.50;80.51;98231.09;1799179;80;21176;-83
2020/12/19 04:40:06;;;;;;;69.25;32.23;;;;;;;3.40;80.62;98232.70;1799151;79;21241;-84
2020/12/19 04:42:35;;;;;;;58.92;27.87;;;;;;;3.39;80.95;98232.77;1799192;79;21077;-83
2020/12/19 04:45:06;;;;;;;68.87;32.83;;;;;;;3.36;81.58;98232.42;1799253;80;21178;-83
2020/12/19 04:47:33;;;;;;;68.60;31.73;;;;;;;3.38;81.47;98231.92;1799229;79;21170;-83
2020/12/19 04:50:01;;;;;;;54.53;27.73;;;;;;;3.46;81.06;98238.16;1799227;80;21253;-79
2020/12/19 04:52:28;;;;;;;64.30;31.10;;;;;;;3.50;81.25;98241.52;1772839;80;21131;-80
2020/12/19 04:54:56;;;;;;;52.08;23.22;;;;;;;3.49;80.84;98235.91;1799216;79;21210;-82
2020/12/19 04:57:23;;;;;;;54.53;25.23;;;;;;;3.50;81.09;98240.22;1799283;79;21142;-80
2020/12/19 04:59:51;;;;;;;55.43;26.50;;;;;;;3.48;80.94;98241.58;1799144;79;21245;-82
2020/12/19 05:02:19;;;;;;;66.15;31.07;;;;;;;3.48;81.03;98241.58;1799406;79;21269;-80
2020/12/19 05:04:47;;;;;;;54.23;28.73;;;;;;;3.43;81.10;98234.38;1799141;79;21131;-79
2020/12/19 05:07:15;;;;;;;43.02;20.32;;;;;;;3.47;81.14;98241.17;1799204;79;21175;-80
2020/12/19 05:09:45;;;;;;;57.65;27.50;;;;;;;3.52;81.24;98240.59;1793144;79;21265;-82
2020/12/19 05:12:13;;;;;;;58.05;28.20;;;;;;;3.52;81.14;98239.72;1790739;80;21382;-78
2020/12/19 05:14:41;;;;;;;61.00;28.90;;;;;;;3.53;81.07;98243.57;1790615;80;21103;-81
2020/12/19 05:17:08;;;;;;;60.43;27.52;;;;;;;3.56;81.05;98251.30;1790688;80;21119;-80
2020/12/19 05:19:37;;;;;;;64.50;30.45;;;;;;;3.65;81.30;98246.24;1790470;80;21122;-80
2020/12/19 05:22:05;;;;;;;31.80;13.38;;;;;;;3.67;81.19;98245.72;1789484;80;21130;-78
2020/12/19 05:24:36;;;;;;;46.02;20.02;;;;;;;3.70;80.83;98247.39;1789601;80;21277;-78
2020/12/19 05:27:05;;;;;;;51.02;25.82;;;;;;;3.63;80.90;98246.73;1789254;80;21131;-83
2020/12/19 05:29:36;;;;;;;55.60;26.10;;;;;;;3.63;80.89;98246.73;1790110;80;21150;-83
2020/12/19 05:32:05;;;;;;;61.25;31.68;;;;;;;3.62;80.75;98246.80;1790792;80;21162;-82
2020/12/19 05:34:33;;;;;;;49.55;22.75;;;;;;;3.60;81.37;98253.34;1790717;80;21265;-80
2020/12/19 05:37:01;;;;;;;61.18;30.85;;;;;;;3.71;81.13;98256.45;1790715;80;21218;-82
2020/12/19 05:39:29;;;;;;;52.45;25.92;;;;;;;3.72;81.11;98258.16;1790391;80;21245;-81
2020/12/19 05:41:57;;;;;;;49.55;24.85;;;;;;;3.74;80.83;98256.36;1790689;80;21123;-84
2020/12/19 05:44:24;;;;;;;50.63;26.10;;;;;;;3.72;80.67;98254.69;1790523;80;21715;-83
2020/12/19 05:46:51;;;;;;;55.65;29.82;;;;;;;3.67;80.66;98263.97;1790640;80;21127;-81
2020/12/19 05:49:21;;;;;;;47.88;26.12;;;;;;;3.66;80.59;98263.59;1790752;80;21142;-85
2020/12/19 05:51:50;;;;;;;54.13;28.95;;;;;;;3.66;80.83;98267.51;1790338;80;21143;-78
2020/12/19 05:54:21;;;;;;;47.80;26.70;;;;;;;3.68;80.85;98268.75;1789582;80;21127;-82
2020/12/19 05:56:50;;;;;;;41.02;19.42;;;;;;;3.67;80.72;98267.88;1790836;80;21302;-81
2020/12/19 05:59:19;;;;;;;55.65;26.42;;;;;;;3.68;80.67;98265.67;1790980;80;21164;-84
2020/12/19 06:01:50;;;;;;;24.55;11.93;;;;;;;3.67;80.50;98269.65;1790591;80;21659;-81
2020/12/19 06:04:19;;;;;;;35.80;17.65;;;;;;;3.67;80.73;98277.01;1790846;80;21072;-78
2020/12/19 06:06:48;;;;;;;48.42;26.33;;;;;;;3.63;80.60;98274.12;1790905;80;21135;-81
2020/12/19 06:09:17;;;;;;;52.20;26.27;;;;;;;3.54;81.00;98275.27;1790653;79;21170;-80
2020/12/19 06:12:10;;;;;;;41.83;21.87;;;;;;;3.53;80.94;98278.77;1790712;80;21135;-84
2020/12/19 06:14:41;;;;;;;50.20;26.37;;;;;;;3.53;80.78;98280.07;1790872;80;21151;-82
2020/12/19 06:17:20;;;;;;;50.78;26.95;;;;;;;3.55;81.10;98280.88;1791131;80;21128;-86
2020/12/19 06:19:48;;;;;;;51.77;26.02;;;;;;;3.61;81.26;98279.83;1789028;80;21167;-79
2020/12/19 06:22:16;;;;;;;53.08;25.05;;;;;;;3.70;81.36;98286.05;1791018;80;21262;-80
2020/12/19 06:24:47;;;;;;;46.50;25.40;;;;;;;3.81;81.14;98290.89;1790925;80;21108;-81
2020/12/19 06:27:27;;;;;;;43.15;25.05;;;;;;;3.88;81.04;98288.49;1790651;80;21151;-83
2020/12/19 06:29:55;;;;;;;45.95;24.05;;;;;;;3.93;80.96;98287.03;1790621;80;21160;-80
2020/12/19 06:32:25;;;;;;;45.65;24.70;;;;;;;4.01;80.79;98285.01;1790714;80;21174;-82
2020/12/19 06:35:11;;;;;;;39.48;21.62;;;;;;;4.06;80.61;98284.38;1790537;80;21763;-82
2020/12/19 06:37:43;;;;;;;43.98;24.25;;;;;;;4.11;80.46;98280.77;1790498;80;21107;-83
2020/12/19 06:40:20;;;;;;;37.63;19.80;;;;;;;4.05;80.35;98290.50;1790486;80;21131;-78
2020/12/19 06:43:10;;;;;;;42.40;23.80;;;;;;;4.03;80.04;98288.86;1790489;80;21208;-77
2020/12/19 06:45:39;;;;;;;46.40;21.35;;;;;;;3.95;80.09;98287.81;1790563;80;21253;-80
2020/12/19 06:48:34;;;;;;;50.03;25.23;;;;;;;3.82;80.08;98291.29;1790550;80;21096;-82
2020/12/19 06:51:04;;;;;;;37.78;18.02;;;;;;;3.77;80.37;98293.65;1790415;80;21257;-81
2020/12/19 06:53:33;;;;;;;29.23;15.32;;;;;;;3.78;80.40;98294.05;1790474;80;21291;-82
2020/12/19 06:56:06;;;;;;;53.28;26.48;;;;;;;3.78;80.37;98297.53;1790410;80;21127;-79
2020/12/19 06:58:35;;;;;;;49.33;27.07;;;;;;;3.76;80.43;98295.42;1783533;80;21134;-84
2020/12/19 07:01:27;;;;;;;44.65;23.55;;;;;;;3.79;80.85;98297.94;1790370;80;21167;-79
2020/12/19 07:03:55;;;;;;;42.83;21.90;;;;;;;3.80;80.46;98294.86;1790459;80;21226;-82
2020/12/19 07:06:23;;;;;;;47.20;24.85;;;;;;;3.79;80.50;98303.59;1790297;80;21289;-78
2020/12/19 07:08:51;;;;;;;42.73;20.32;;;;;;;3.80;80.73;98303.55;1790549;80;21119;-85
2020/12/19 07:11:40;;;;;;;46.70;25.77;;;;;;;3.86;80.67;98299.86;1798832;79;21166;-81
2020/12/19 07:14:15;;;;;;;41.00;20.85;;;;;;;3.85;80.52;98292.97;1799111;79;21261;-80
2020/12/19 07:16:50;;;;;;;38.65;20.82;;;;;;;3.87;80.55;98295.05;1798586;80;21130;-80
2020/12/19 07:19:27;;;;;;;37.85;20.97;;;;;;;3.83;80.46;98294.30;1798710;80;21142;-79
2020/12/19 07:21:58;;;;;;;44.67;24.77;;;;;;;3.85;80.63;98291.66;1797634;80;21135;-76
2020/12/19 07:24:25;;;;;;;49.75;27.62;;;;;;;3.92;80.71;98289.23;1798869;79;21225;-79
2020/12/19 07:26:53;;;;;;;44.73;24.80;;;;;;;3.97;80.54;98289.08;1798618;80;21135;-78
2020/12/19 07:29:24;;;;;;;52.20;27.82;;;;;;;3.98;80.46;98289.02;1798637;80;21153;-82
2020/12/19 07:31:57;;;;;;;50.12;26.82;;;;;;;3.95;80.56;98281.28;1798796;79;21154;-80
2020/12/19 07:34:29;;;;;;;46.23;26.35;;;;;;;3.97;80.51;98284.70;1799011;80;21143;-83
2020/12/19 07:36:57;;;;;;;49.33;27.27;;;;;;;3.98;80.39;98285.10;1798663;80;21268;-85
2020/12/19 07:39:24;;;;;;;48.13;26.45;;;;;;;3.99;80.56;98283.36;1798691;80;21135;-82
2020/12/19 07:42:08;;;;;;;51.37;27.45;;;;;;;4.04;80.40;98283.58;1798524;80;21723;-83
2020/12/19 07:44:37;;;;;;;47.08;23.65;;;;;;;4.08;80.32;98290.00;1798870;79;21128;-82
2020/12/19 07:47:10;;;;;;;36.42;18.40;;;;;;;3.99;80.04;98284.20;1798590;79;21111;-85
2020/12/19 07:49:51;;;;;;;46.80;25.57;;;;;;;3.97;79.99;98276.88;1799551;80;21112;-78
2020/12/19 07:52:24;;;;;;;48.35;25.05;;;;;;;3.91;80.74;98281.02;1799556;80;21265;-84
2020/12/19 07:54:56;;;;;;;33.08;18.12;;;;;;;3.99;80.51;98277.68;1799634;80;21277;-86
2020/12/19 07:57:32;;;;;;;45.63;26.42;;;;;;;4.09;80.47;98272.14;1799573;79;21267;-85
2020/12/19 08:00:03;;;;;;;44.10;22.15;;;;;;;4.17;80.52;98266.19;1799697;79;21265;-78
2020/12/19 08:02:37;;;;;;;42.53;24.52;;;;;;;4.29;80.42;98272.29;1799543;80;21198;-79
2020/12/19 08:05:05;;;;;;;39.42;21.12;;;;;;;4.24;80.05;98272.05;1799523;78;21219;-84
2020/12/19 08:07:32;;;;;;;43.73;22.32;;;;;;;4.19;80.11;98267.84;1799756;80;21480;-86
2020/12/19 08:10:07;;;;;;;30.25;16.35;;;;;;;4.18;80.10;98273.13;1799524;80;21289;-83
2020/12/19 08:12:35;;;;;;;42.53;21.35;;;;;;;4.18;80.03;98273.13;1799650;80;21096;-83
2020/12/19 08:15:10;;;;;;;39.88;23.05;;;;;;;4.10;80.06;98265.55;1799737;78;21285;-85
2020/12/19 08:17:59;;;;;;;40.12;22.75;;;;;;;4.10;80.15;98269.93;1799692;80;21583;-84
2020/12/19 08:20:38;;;;;;;38.85;20.40;;;;;;;4.17;80.34;98267.06;1793949;80;21565;-86
2020/12/19 08:23:07;;;;;;;39.80;20.60;;;;;;;4.30;79.97;98269.21;1794138;80;21155;-83
2020/12/19 08:25:37;;;;;;;36.85;20.88;;;;;;;4.24;79.95;98267.67;1794118;79;21163;-82
2020/12/19 08:28:05;;;;;;;40.30;23.12;;;;;;;4.24;79.93;98270.28;1793847;79;21158;-80
2020/12/19 08:30:34;;;;;;;41.73;22.20;;;;;;;4.25;80.00;98274.59;1793584;80;21423;-82
2020/12/19 08:33:08;;;;;;;37.83;21.73;;;;;;;4.22;79.66;98274.27;1793757;80;21140;-84
2020/12/19 08:35:42;;;;;;;42.53;23.45;;;;;;;4.18;79.70;98278.34;1793873;80;21147;-80
2020/12/19 08:38:19;;;;;;;38.63;23.67;;;;;;;4.14;79.90;98278.03;1793950;80;21293;-82
2020/12/19 08:40:49;;;;;;;41.80;22.45;;;;;;;4.15;79.91;98272.78;1794041;80;21108;-82
2020/12/19 08:43:19;;;;;;;39.18;22.50;;;;;;;4.17;79.93;98273.59;1793931;80;21238;-85
2020/12/19 08:45:49;;;;;;;40.52;23.42;;;;;;;4.17;79.79;98272.28;1793997;79;21148;-84
2020/12/19 08:48:43;;;;;;;34.83;18.35;;;;;;;4.24;79.71;98261.14;1835032;77;25983;-86
2020/12/19 08:51:15;;;;;;;38.30;20.95;;;;;;;4.14;79.47;98254.11;1833864;78;21107;-83
2020/12/19 08:53:43;;;;;;;35.45;20.92;;;;;;;4.18;79.61;98269.20;1833655;78;21138;-80
2020/12/19 08:56:17;;;;;;;31.50;16.82;;;;;;;4.22;79.78;98265.13;1833667;77;21119;-84
2020/12/19 08:58:55;;;;;;;35.88;20.52;;;;;;;4.26;79.64;98267.17;1833790;78;21254;-77
2020/12/19 09:01:23;;;;;;;40.23;23.38;;;;;;;4.23;79.72;98256.83;1833778;77;21242;-78
2020/12/19 09:03:53;;;;;;;40.67;20.43;;;;;;;4.28;79.74;98256.66;1833697;78;21139;-81
2020/12/19 09:06:20;;;;;;;32.33;18.37;;;;;;;4.35;79.86;98256.39;1833811;78;21304;-79
2020/12/19 09:08:48;;;;;;;35.65;21.55;;;;;;;4.48;79.80;98249.42;1833596;78;21107;-77
2020/12/19 09:11:28;;;;;;;35.28;20.20;;;;;;;4.54;79.62;98253.10;1833118;78;21278;-80
2020/12/19 09:14:11;;;;;;;38.75;21.80;;;;;;;4.61;79.69;98253.73;1833588;78;21174;-77
2020/12/19 09:16:49;;;;;;;30.17;17.07;;;;;;;4.72;79.51;98254.63;1833437;78;21118;-78
2020/12/19 09:19:18;;;;;;;31.68;19.27;;;;;;;4.77;79.27;98243.56;1833379;78;21274;-80
2020/12/19 09:21:58;;;;;;;22.10;12.00;;;;;;;4.76;79.08;98249.22;1833398;78;21119;-85
2020/12/19 09:24:26;;;;;;;30.62;18.57;;;;;;;4.84;78.68;98241.10;1833487;78;21247;-82
2020/12/19 09:26:54;;;;;;;35.35;21.82;;;;;;;4.84;78.43;98243.24;1833386;78;21131;-81
2020/12/19 09:29:21;;;;;;;33.55;17.62;;;;;;;4.80;78.32;98241.67;1833642;77;21150;-85
2020/12/19 09:31:48;;;;;;;33.53;19.80;;;;;;;4.79;78.03;98244.33;1833541;78;21099;-84
2020/12/19 09:34:16;;;;;;;35.10;19.32;;;;;;;4.75;78.50;98245.38;1833477;78;21148;-78
2020/12/19 09:36:44;;;;;;;24.87;12.55;;;;;;;4.73;77.64;98240.22;1833490;78;21266;-86
2020/12/19 09:39:12;;;;;;;27.37;18.20;;;;;;;4.74;78.31;98243.20;1833418;78;21112;-79
2020/12/19 09:41:40;;;;;;;32.25;18.67;;;;;;;4.67;78.15;98240.43;1833507;78;21724;-79
2020/12/19 09:44:08;;;;;;;30.68;19.42;;;;;;;4.72;78.29;98242.87;1833765;78;21208;-86
2020/12/19 09:46:35;;;;;;;32.63;19.32;;;;;;;4.75;78.54;98234.45;1832947;78;21297;-83
2020/12/19 09:49:03;;;;;;;33.80;20.40;;;;;;;4.84;78.67;98234.57;1825062;78;21116;-81
2020/12/19 09:51:31;;;;;;;29.20;19.48;;;;;;;4.91;78.60;98239.11;1824980;79;21275;-84
2020/12/19 09:53:58;;;;;;;29.23;19.80;;;;;;;4.98;78.24;98236.17;1824976;78;21249;-82
2020/12/19 09:56:26;;;;;;;33.18;19.98;;;;;;;5.07;78.35;98236.72;1824890;79;21195;-85
2020/12/19 09:58:54;;;;;;;22.13;15.13;;;;;;;4.96;77.64;98232.80;1824176;79;21282;-82
2020/12/19 10:01:21;;;;;;;31.27;19.55;;;;;;;4.88;77.74;98237.44;1823902;79;21136;-79
2020/12/19 10:03:48;;;;;;;29.72;19.00;;;;;;;4.78;77.83;98235.66;1824343;78;21120;-81
2020/12/19 10:06:16;;;;;;;30.82;20.35;;;;;;;4.64;77.52;98241.41;1824246;79;21258;-81
2020/12/19 10:08:43;;;;;;;30.92;18.05;;;;;;;4.56;77.91;98238.23;1823471;79;21128;-81
2020/12/19 10:11:10;;;;;;;29.30;19.87;;;;;;;4.53;78.05;98235.73;1823781;79;21127;-82
2020/12/19 10:13:37;;;;;;;31.65;19.15;;;;;;;4.50;78.20;98233.25;1824576;79;21123;-80
2020/12/19 10:16:06;;;;;;;34.38;19.12;;;;;;;4.53;78.43;98226.16;1824524;79;21072;-83
2020/12/19 10:18:33;;;;;;;34.95;18.52;;;;;;;4.56;78.48;98225.18;1824464;79;21132;-81
2020/12/19 10:21:00;;;;;;;31.62;17.62;;;;;;;4.64;78.49;98223.13;1824219;79;21230;-81
2020/12/19 10:23:29;;;;;;;31.12;18.87;;;;;;;4.57;78.16;98217.75;1824298;79;21124;-81
2020/12/19 10:25:57;;;;;;;29.37;18.17;;;;;;;4.49;78.22;98218.49;1824351;79;21266;-82
2020/12/19 10:28:24;;;;;;;26.15;15.10;;;;;;;4.42;78.48;98222.22;1824376;79;21096;-84
2020/12/19 10:30:52;;;;;;;27.22;15.80;;;;;;;4.43;78.42;98220.88;1824373;78;21276;-84
2020/12/19 10:33:21;;;;;;;26.93;17.45;;;;;;;4.39;78.56;98214.05;1824330;78;21159;-81
2020/12/19 10:35:48;;;;;;;28.40;17.05;;;;;;;4.37;78.56;98208.03;1824387;79;21096;-79
2020/12/19 10:38:20;;;;;;;27.93;18.17;;;;;;;4.31;78.66;98209.14;1824398;79;21250;-80
2020/12/19 10:40:49;;;;;;;23.42;14.13;;;;;;;4.32;78.76;98206.90;1821935;79;21298;-79
2020/12/19 10:43:18;;;;;;;30.90;18.52;;;;;;;4.35;78.83;98203.34;1824216;78;21293;-78
2020/12/19 10:45:46;;;;;;;23.55;14.47;;;;;;;4.35;78.69;98208.56;1818322;79;21116;-83
2020/12/19 10:48:14;;;;;;;35.73;20.40;;;;;;;4.34;78.69;98205.09;1826425;79;21259;-79
2020/12/19 10:50:41;;;;;;;29.67;20.05;;;;;;;4.33;78.98;98205.98;1827607;78;21098;-79
2020/12/19 10:53:08;;;;;;;29.67;16.85;;;;;;;4.35;78.67;98209.41;1800493;79;21224;-80
2020/12/19 10:55:37;;;;;;;30.97;19.98;;;;;;;4.32;78.67;98208.67;1827536;78;21232;-81
2020/12/19 10:58:04;;;;;;;29.32;18.87;;;;;;;4.28;78.88;98212.28;1820068;79;21135;-82
2020/12/19 11:00:32;;;;;;;28.98;18.95;;;;;;;4.28;79.04;98213.59;1825597;79;21222;-80
2020/12/19 11:02:59;;;;;;;25.10;12.30;;;;;;;4.32;78.91;98207.36;1827364;79;21270;-80
2020/12/19 11:05:26;;;;;;;27.50;17.37;;;;;;;4.35;78.84;98209.87;1825739;78;21408;-80
2020/12/19 11:07:53;;;;;;;30.62;18.45;;;;;;;4.31;78.83;98203.92;1827137;79;21136;-79
2020/12/19 11:10:21;;;;;;;29.15;16.93;;;;;;;4.35;78.98;98202.04;1827414;79;21239;-81
2020/12/19 11:12:48;;;;;;;23.62;15.80;;;;;;;4.36;78.73;98199.36;1827231;78;21129;-78
2020/12/19 11:15:16;;;;;;;29.25;17.35;;;;;;;4.34;78.89;98195.95;1827322;79;21243;-80
2020/12/19 11:17:43;;;;;;;27.27;16.20;;;;;;;4.34;78.70;98199.87;1831329;77;21119;-82
2020/12/19 11:20:10;;;;;;;28.07;16.50;;;;;;;4.35;78.77;98196.81;1825327;78;21093;-80
2020/12/19 11:22:38;;;;;;;32.85;18.65;;;;;;;4.38;78.65;98196.25;1827199;79;21224;-82
2020/12/19 11:25:05;;;;;;;26.35;16.82;;;;;;;4.33;78.59;98195.55;1827455;79;21240;-80
2020/12/19 11:27:32;;;;;;;29.32;18.48;;;;;;;4.34;78.70;98195.11;1827369;78;21253;-79
2020/12/19 11:29:59;;;;;;;28.62;18.15;;;;;;;4.38;78.84;98198.86;1795137;79;21173;-79
2020/12/19 11:32:27;;;;;;;34.08;20.88;;;;;;;4.34;78.54;98199.87;1803909;79;21804;-81
2020/12/19 11:34:54;;;;;;;30.08;17.45;;;;;;;4.33;78.81;98198.16;1802299;79;21197;-78
2020/12/19 11:37:21;;;;;;;32.83;19.37;;;;;;;4.28;78.52;98201.41;1817660;79;21206;-79